Time;durP1;ratioP1;P1;durP2;ratioP2;P2;SDS_P1;SDS_P2;PMS_P1;PMS_P2;Temp;Humidity;BMP_temperature;BMP_pressure;BME280_temperature;BME280_humidity;BME280_pressure;Samples;Min_cycle;Max_cycle;Signal;HPM_P1;HPM_P2
2022/06/01 00:00:29;;;;;;;6.50;1.40;;;10.10;99.90;;;;;;5091542;28;20245;-59
2022/06/01 00:02:55;;;;;;;5.07;1.80;;;9.80;99.90;;;;;;5091370;28;20179;-60
2022/06/01 00:05:21;;;;;;;5.13;1.47;;;;;;;;;;5091524;28;20171;-60
2022/06/01 00:07:48;;;;;;;2.63;1.30;;;10.10;99.90;;;;;;5091360;28;20353;-60
2022/06/01 00:10:14;;;;;;;4.80;1.60;;;10.00;99.90;;;;;;5091128;28;20203;-60
2022/06/01 00:12:40;;;;;;;2.50;1.60;;;9.90;99.90;;;;;;5091309;28;20160;-60
2022/06/01 00:15:12;;;;;;;1.77;1.30;;;9.90;99.90;;;;;;5090822;28;20180;-60
2022/06/01 00:17:38;;;;;;;4.03;1.20;;;9.90;99.90;;;;;;5090921;28;20627;-60
2022/06/01 00:20:05;;;;;;;8.00;1.67;;;9.80;99.90;;;;;;5091103;28;20179;-59
2022/06/01 00:22:30;;;;;;;2.87;1.40;;;9.80;99.90;;;;;;5091158;28;20179;-60
2022/06/01 00:24:57;;;;;;;3.47;1.67;;;9.90;99.90;;;;;;5091175;28;20523;-59
2022/06/01 00:27:23;;;;;;;4.43;1.50;;;9.90;99.90;;;;;;5089578;28;20168;-60
2022/06/01 00:29:48;;;;;;;2.77;1.40;;;10.60;99.90;;;;;;5090766;28;20211;-59
2022/06/01 00:32:15;;;;;;;3.00;1.40;;;10.00;99.90;;;;;;5090993;28;20222;-60
2022/06/01 00:34:42;;;;;;;3.97;1.20;;;10.10;99.90;;;;;;5090889;28;20168;-59
2022/06/01 00:37:09;;;;;;;2.50;1.30;;;10.40;99.90;;;;;;5090845;28;20172;-60
2022/06/01 00:39:37;;;;;;;6.30;1.70;;;10.20;99.90;;;;;;5090711;28;20176;-59
2022/06/01 00:42:30;;;;;;;2.80;1.60;;;10.20;99.90;;;;;;5089489;28;20164;-59
2022/06/01 00:44:56;;;;;;;3.30;1.50;;;10.20;99.90;;;;;;5089822;28;20184;-59
2022/06/01 00:47:24;;;;;;;3.83;1.50;;;11.30;99.90;;;;;;5090712;28;20200;-59
2022/06/01 00:50:00;;;;;;;2.27;1.47;;;10.10;99.90;;;;;;5090605;28;20199;-60
2022/06/01 00:52:36;;;;;;;3.60;1.60;;;9.90;99.90;;;;;;5090610;28;20640;-60
2022/06/01 00:55:24;;;;;;;7.27;1.70;;;10.00;99.90;;;;;;5090899;28;20711;-60
2022/06/01 00:57:55;;;;;;;5.83;1.60;;;9.90;99.90;;;;;;5090811;28;20176;-59
2022/06/01 01:00:27;;;;;;;4.60;1.60;;;9.80;99.90;;;;;;5090708;28;20164;-59
2022/06/01 01:02:56;;;;;;;3.83;1.53;;;9.80;99.90;;;;;;5090605;28;20172;-60
2022/06/01 01:05:23;;;;;;;7.33;1.77;;;9.90;99.90;;;;;;5090500;28;20171;-59
2022/06/01 01:07:51;;;;;;;3.20;1.60;;;9.80;99.90;;;;;;5090459;28;20176;-60
2022/06/01 01:10:17;;;;;;;2.60;1.60;;;9.70;99.90;;;;;;5090498;28;20282;-59
2022/06/01 01:12:57;;;;;;;3.50;1.70;;;9.90;99.90;;;;;;5090554;28;20664;-59
2022/06/01 01:15:58;;;;;;;3.50;1.73;;;9.70;99.90;;;;;;5090525;28;20167;-60
2022/06/01 01:18:32;;;;;;;5.37;1.67;;;9.70;99.90;;;;;;5090229;28;20302;-59
2022/06/01 01:21:14;;;;;;;7.03;2.37;;;9.70;99.90;;;;;;5090148;28;20640;-59
2022/06/01 01:23:56;;;;;;;5.00;1.93;;;9.70;99.90;;;;;;5090387;28;20176;-59
2022/06/01 01:26:23;;;;;;;9.27;2.37;;;9.60;99.90;;;;;;5092417;28;20228;-60
2022/06/01 01:28:49;;;;;;;4.33;1.90;;;9.50;99.90;;;;;;5094294;28;20713;-59
2022/06/01 01:31:18;;;;;;;6.10;2.30;;;9.60;99.90;;;;;;5094356;28;20168;-59
2022/06/01 01:33:47;;;;;;;6.07;2.00;;;9.50;99.90;;;;;;5094245;28;20168;-59
2022/06/01 01:36:14;;;;;;;4.17;2.00;;;9.60;99.90;;;;;;5094262;28;20180;-59
2022/06/01 01:39:09;;;;;;;5.20;1.80;;;9.60;99.90;;;;;;5093983;28;20172;-59
2022/06/01 01:41:44;;;;;;;5.07;2.20;;;9.70;99.90;;;;;;5094473;28;20253;-59
2022/06/01 01:44:51;;;;;;;3.90;2.13;;;9.80;99.90;;;;;;5094139;28;20182;-59
2022/06/01 01:47:17;;;;;;;4.93;2.10;;;10.10;99.90;;;;;;5071338;28;20249;-59
2022/06/01 01:49:42;;;;;;;5.10;2.00;;;9.80;99.90;;;;;;5090186;28;20687;-59
2022/06/01 01:52:16;;;;;;;5.53;2.30;;;9.90;99.90;;;;;;5093840;28;20528;-59
2022/06/01 01:55:11;;;;;;;5.70;2.30;;;10.00;99.90;;;;;;5093826;28;20275;-59
2022/06/01 01:57:57;;;;;;;5.97;2.37;;;10.00;99.90;;;;;;5094043;28;20191;-59
2022/06/01 02:00:34;;;;;;;5.83;2.43;;;10.00;99.90;;;;;;5093914;28;20179;-60
2022/06/01 02:03:17;;;;;;;6.47;2.20;;;10.10;99.90;;;;;;5093719;28;20163;-60
2022/06/01 02:06:12;;;;;;;6.17;2.30;;;10.10;99.90;;;;;;5093563;28;20168;-60
2022/06/01 02:08:58;;;;;;;5.83;2.40;;;10.20;99.90;;;;;;5093781;28;20182;-59
2022/06/01 02:14:42;;;;;;;7.17;2.13;;;10.10;99.90;;;;;;5093467;28;20191;-59
2022/06/01 02:17:08;;;;;;;2.53;2.10;;;10.30;99.90;;;;;;5093694;28;20168;-60
2022/06/01 02:19:41;;;;;;;3.23;2.27;;;10.30;99.90;;;;;;5093241;28;20718;-60
2022/06/01 02:22:08;;;;;;;4.70;2.40;;;10.40;99.90;;;;;;5093437;28;20190;-60
2022/06/01 02:24:34;;;;;;;5.30;2.50;;;10.40;99.90;;;;;;5093212;28;20664;-60
2022/06/01 02:27:00;;;;;;;6.53;2.40;;;10.50;99.90;;;;;;5093369;28;20182;-60
2022/06/01 02:29:35;;;;;;;7.40;2.73;;;10.50;99.90;;;;;;5093195;28;20629;-60
2022/06/01 02:32:03;;;;;;;8.73;3.20;;;10.60;99.90;;;;;;5093165;28;20167;-58
2022/06/01 02:34:31;;;;;;;6.37;3.53;;;10.60;99.90;;;;;;5093006;28;20168;-58
2022/06/01 02:36:58;;;;;;;4.60;3.27;;;10.70;99.90;;;;;;5093018;28;20164;-58
2022/06/01 02:39:27;;;;;;;7.80;3.30;;;10.90;99.90;;;;;;5092928;28;20239;-58
2022/06/01 02:44:54;;;;;;;6.23;2.57;;;10.80;99.90;;;;;;5093094;28;20206;-59
2022/06/01 02:47:21;;;;;;;4.90;2.80;;;10.90;99.90;;;;;;5092854;28;20180;-59
2022/06/01 02:49:47;;;;;;;7.37;4.00;;;10.90;99.90;;;;;;5092781;28;20207;-58
2022/06/01 02:52:13;;;;;;;9.40;3.60;;;11.10;99.90;;;;;;5092808;28;20171;-58
2022/06/01 02:54:38;;;;;;;7.70;3.17;;;11.00;99.90;;;;;;5092758;28;20252;-58
2022/06/01 02:57:04;;;;;;;6.53;3.27;;;7.90;99.90;;;;;;5092787;28;20594;-58
2022/06/01 02:59:30;;;;;;;4.63;2.87;;;11.30;99.90;;;;;;5092666;28;20663;-58
2022/06/01 03:01:55;;;;;;;7.87;3.30;;;11.00;99.90;;;;;;5092542;28;20258;-59
2022/06/01 03:04:21;;;;;;;7.77;3.23;;;11.00;99.90;;;;;;5092569;28;20654;-59
2022/06/01 03:06:47;;;;;;;7.70;3.47;;;11.20;99.90;;;;;;5092541;28;20543;-59
2022/06/01 03:09:13;;;;;;;10.80;4.30;;;11.00;99.90;;;;;;5092470;28;20684;-58
2022/06/01 03:11:38;;;;;;;11.40;5.23;;;12.20;99.90;;;;;;5091175;28;20684;-59
2022/06/01 03:14:04;;;;;;;8.30;4.70;;;11.00;99.90;;;;;;5092523;28;20325;-59
2022/06/01 03:16:30;;;;;;;11.60;4.80;;;11.20;99.90;;;;;;5092361;28;20544;-58
2022/06/01 03:18:55;;;;;;;7.03;4.20;;;10.90;99.90;;;;;;5091923;28;20268;-59
2022/06/01 03:21:21;;;;;;;9.03;3.83;;;11.10;99.90;;;;;;5092312;28;20174;-59
2022/06/01 03:23:46;;;;;;;8.27;3.90;;;11.10;99.90;;;;;;5092355;28;20624;-59
2022/06/01 03:26:12;;;;;;;9.30;4.07;;;11.00;99.90;;;;;;5092254;28;20656;-63
2022/06/01 03:28:39;;;;;;;9.17;4.00;;;11.00;99.90;;;;;;5092126;28;20175;-58
2022/06/01 03:31:06;;;;;;;7.77;4.20;;;11.00;99.90;;;;;;5091848;28;20684;-58
2022/06/01 03:33:35;;;;;;;7.30;4.27;;;10.80;99.90;;;;;;5092239;28;20164;-58
2022/06/01 03:36:04;;;;;;;9.23;4.50;;;11.00;99.90;;;;;;5092155;28;20187;-58
2022/06/01 03:38:29;;;;;;;14.80;4.17;;;11.10;99.90;;;;;;5092052;28;20176;-58
2022/06/01 03:40:55;;;;;;;9.93;4.27;;;10.90;99.90;;;;;;5091881;28;20182;-58
2022/06/01 03:43:20;;;;;;;8.30;4.67;;;11.00;99.90;;;;;;5091845;28;20247;-58
2022/06/01 03:45:56;;;;;;;7.00;4.20;;;11.20;99.90;;;;;;5091864;28;20175;-58
2022/06/01 03:48:23;;;;;;;9.17;4.60;;;11.00;99.90;;;;;;5091490;28;20176;-58
2022/06/01 03:50:49;;;;;;;6.30;4.10;;;11.10;99.90;;;;;;5091753;28;20302;-58
2022/06/01 03:53:15;;;;;;;6.77;3.60;;;11.10;99.90;;;;;;5091740;28;20259;-58
2022/06/01 03:55:41;;;;;;;7.57;4.60;;;11.10;99.90;;;;;;5091448;28;20196;-58
2022/06/01 03:58:15;;;;;;;10.47;4.60;;;11.10;99.90;;;;;;5091345;28;20196;-58
2022/06/01 04:00:41;;;;;;;8.77;4.70;;;11.10;99.90;;;;;;5091386;28;20172;-58
2022/06/01 04:03:07;;;;;;;7.33;4.50;;;11.10;99.90;;;;;;5091358;28;20172;-58
2022/06/01 04:05:33;;;;;;;11.40;4.50;;;11.10;99.90;;;;;;5091299;28;20225;-59
2022/06/01 04:07:59;;;;;;;8.43;3.97;;;11.10;99.90;;;;;;5091301;28;20230;-58
2022/06/01 04:10:24;;;;;;;7.63;4.33;;;11.20;99.90;;;;;;5090980;28;20215;-59
2022/06/01 04:12:50;;;;;;;8.53;4.13;;;11.20;99.90;;;;;;5091038;28;20515;-59
2022/06/01 04:15:17;;;;;;;12.00;4.33;;;11.20;99.90;;;;;;5091365;28;20172;-59
2022/06/01 04:17:42;;;;;;;11.30;4.53;;;11.20;99.90;;;;;;5091438;28;20176;-59
2022/06/01 04:20:09;;;;;;;8.73;4.57;;;11.20;99.90;;;;;;5091067;28;20230;-58
2022/06/01 04:22:38;;;;;;;9.83;4.63;;;11.20;99.90;;;;;;5091019;28;20183;-58
2022/06/01 04:25:04;;;;;;;6.87;4.07;;;11.20;99.90;;;;;;5091017;28;20648;-59
2022/06/01 04:27:29;;;;;;;7.47;3.87;;;11.60;99.90;;;;;;5091092;28;20682;-58
2022/06/01 04:29:55;;;;;;;8.67;3.93;;;11.20;99.90;;;;;;5090784;28;20231;-58
2022/06/01 04:32:28;;;;;;;10.23;3.50;;;11.10;99.90;;;;;;5090993;28;20283;-58
2022/06/01 04:34:54;;;;;;;10.93;3.47;;;11.20;99.90;;;;;;5091043;28;20176;-58
2022/06/01 04:37:20;;;;;;;6.13;3.83;;;11.30;99.90;;;;;;5090862;28;20246;-58
2022/06/01 04:39:46;;;;;;;10.37;3.83;;;11.30;99.90;;;;;;5090822;28;20203;-58
2022/06/01 04:42:11;;;;;;;5.53;3.40;;;11.60;99.90;;;;;;5090787;28;20190;-58
2022/06/01 04:44:37;;;;;;;10.07;3.30;;;11.30;99.90;;;;;;5091030;28;20182;-59
2022/06/01 04:47:04;;;;;;;7.03;3.03;;;11.30;99.90;;;;;;5090766;28;20182;-59
2022/06/01 04:49:30;;;;;;;7.90;3.37;;;11.30;99.90;;;;;;5090657;28;20219;-58
2022/06/01 04:51:56;;;;;;;6.93;2.90;;;11.30;99.90;;;;;;5090710;28;20288;-58
2022/06/01 04:54:21;;;;;;;7.93;3.10;;;11.30;99.90;;;;;;5090644;28;20191;-59
2022/06/01 04:56:47;;;;;;;7.77;3.50;;;11.30;99.90;;;;;;5090698;28;20246;-59
2022/06/01 04:59:16;;;;;;;7.73;3.27;;;11.20;99.90;;;;;;5090721;28;20198;-59
2022/06/01 05:01:43;;;;;;;10.70;4.30;;;11.20;99.90;;;;;;5093261;28;20697;-59
2022/06/01 05:04:08;;;;;;;7.80;3.70;;;11.20;99.90;;;;;;5094966;28;20179;-59
2022/06/01 05:06:34;;;;;;;6.67;3.50;;;11.10;99.90;;;;;;5094778;28;20171;-59
2022/06/01 05:09:00;;;;;;;6.13;2.93;;;11.20;99.90;;;;;;5094663;28;20395;-59
2022/06/01 05:11:25;;;;;;;6.40;2.80;;;11.10;99.90;;;;;;5094712;28;20251;-58
2022/06/01 05:13:51;;;;;;;8.37;2.80;;;11.20;99.90;;;;;;5094890;28;20219;-59
2022/06/01 05:16:17;;;;;;;7.07;3.10;;;11.20;99.90;;;;;;5094760;28;20172;-59
2022/06/01 05:18:43;;;;;;;6.93;2.90;;;11.30;99.90;;;;;;5094617;28;20164;-59
2022/06/01 05:21:09;;;;;;;7.67;2.60;;;12.30;99.90;;;;;;5094785;28;20197;-58
2022/06/01 05:23:35;;;;;;;7.53;3.70;;;11.70;99.90;;;;;;5094425;28;20264;-58
2022/06/01 05:26:02;;;;;;;10.93;4.40;;;11.40;99.90;;;;;;5094437;28;20669;-58
2022/06/01 05:28:30;;;;;;;7.10;4.00;;;11.40;99.90;;;;;;5094427;28;20176;-58
2022/06/01 05:31:04;;;;;;;10.50;4.33;;;11.40;99.90;;;;;;5094411;28;20606;-58
2022/06/01 05:33:30;;;;;;;6.27;3.90;;;11.50;99.90;;;;;;5094318;28;20275;-58
2022/06/01 05:35:56;;;;;;;10.67;4.10;;;11.60;99.90;;;;;;5094295;28;20214;-59
2022/06/01 05:38:21;;;;;;;7.97;3.80;;;11.70;99.90;;;;;;5094048;28;20184;-58
2022/06/01 05:40:47;;;;;;;7.23;3.50;;;12.10;99.90;;;;;;5094110;28;20164;-58
2022/06/01 05:43:15;;;;;;;8.53;3.90;;;11.80;99.90;;;;;;5094301;28;20562;-59
2022/06/01 05:45:41;;;;;;;7.50;3.23;;;11.80;99.90;;;;;;5094029;28;20171;-59
2022/06/01 05:48:09;;;;;;;7.57;2.72;;;12.10;99.90;;;;;;5094111;28;20172;-59
2022/06/01 05:50:35;;;;;;;8.25;2.42;;;12.00;99.90;;;;;;5094108;28;20269;-58
2022/06/01 05:53:00;;;;;;;4.67;2.40;;;12.10;99.90;;;;;;5093863;28;20244;-59
2022/06/01 05:55:26;;;;;;;7.00;2.40;;;12.20;99.90;;;;;;5094089;28;20168;-59
2022/06/01 05:57:52;;;;;;;4.10;1.83;;;12.40;99.90;;;;;;5094069;28;20632;-58
2022/06/01 06:00:18;;;;;;;5.93;1.98;;;12.80;99.90;;;;;;5093713;28;20186;-59
2022/06/01 06:02:44;;;;;;;5.28;1.70;;;12.50;99.90;;;;;;5093764;28;20225;-58
2022/06/01 06:07:56;;;;;;;3.63;2.10;;;12.60;99.90;;;;;;5093872;28;20573;-59
2022/06/01 06:10:23;;;;;;;3.83;1.65;;;12.70;99.90;;;;;;5093671;28;20243;-59
2022/06/01 06:12:49;;;;;;;3.73;1.30;;;12.70;99.90;;;;;;5093161;28;20164;-59
2022/06/01 06:15:16;;;;;;;6.85;1.90;;;12.80;99.90;;;;;;5093429;28;20218;-59
2022/06/01 06:17:41;;;;;;;4.25;1.35;;;12.90;99.90;;;;;;5093494;28;20164;-59
2022/06/01 06:20:08;;;;;;;5.57;1.35;;;12.90;99.90;;;;;;5093281;28;20239;-59
2022/06/01 06:22:34;;;;;;;3.97;1.50;;;12.90;99.90;;;;;;5093228;28;20283;-58
2022/06/01 06:25:00;;;;;;;3.05;1.42;;;13.00;99.90;;;;;;5093390;28;20689;-59
2022/06/01 06:27:28;;;;;;;2.30;1.30;;;13.10;99.90;;;;;;5093303;28;20164;-59
2022/06/01 06:29:54;;;;;;;3.47;1.40;;;13.00;99.90;;;;;;5093190;28;20314;-58
2022/06/01 06:32:20;;;;;;;3.08;1.70;;;13.10;99.90;;;;;;5093263;28;20644;-59
2022/06/01 06:34:45;;;;;;;3.65;1.27;;;13.10;99.90;;;;;;5093161;28;20164;-58
2022/06/01 06:37:11;;;;;;;6.40;1.33;;;13.20;99.90;;;;;;5093121;28;20164;-58
2022/06/01 06:39:37;;;;;;;6.90;1.63;;;13.10;99.90;;;;;;5092965;28;20575;-58
2022/06/01 06:42:03;;;;;;;3.75;1.60;;;13.20;99.90;;;;;;5093132;28;20178;-59
2022/06/01 06:44:29;;;;;;;4.10;1.50;;;12.80;99.90;;;;;;5093053;28;20186;-59
2022/06/01 06:46:55;;;;;;;5.25;1.40;;;13.30;99.90;;;;;;5092920;28;20539;-58
2022/06/01 06:49:21;;;;;;;2.38;1.13;;;13.40;99.90;;;;;;5092898;28;20552;-59
2022/06/01 06:51:46;;;;;;;3.28;1.20;;;13.50;99.90;;;;;;5092966;28;20176;-58
2022/06/01 06:54:12;;;;;;;2.03;1.20;;;13.50;99.90;;;;;;5092794;28;20225;-59
2022/06/01 06:56:37;;;;;;;2.40;1.17;;;13.60;99.90;;;;;;5093042;28;20511;-59
2022/06/01 06:59:04;;;;;;;4.25;1.10;;;13.70;99.90;;;;;;5091419;28;20254;-59
2022/06/01 07:01:30;;;;;;;2.63;1.10;;;13.70;99.90;;;;;;5092512;28;20172;-59
2022/06/01 07:03:56;;;;;;;2.90;1.10;;;13.80;99.90;;;;;;5092646;28;20244;-59
2022/06/01 07:06:23;;;;;;;7.05;1.17;;;13.80;99.90;;;;;;5092729;28;20206;-59
2022/06/01 07:08:52;;;;;;;2.85;1.10;;;13.90;99.90;;;;;;5092498;28;20525;-59
2022/06/01 07:11:20;;;;;;;2.50;1.13;;;14.00;99.90;;;;;;5092251;28;20234;-59
2022/06/01 07:13:47;;;;;;;1.88;1.02;;;14.20;99.90;;;;;;5092437;28;20636;-59
2022/06/01 07:16:13;;;;;;;2.25;1.10;;;14.10;99.90;;;;;;5092299;28;20667;-59
2022/06/01 07:18:42;;;;;;;2.25;1.10;;;14.30;99.90;;;;;;5092117;28;20160;-59
2022/06/01 07:21:08;;;;;;;2.80;0.90;;;14.20;99.90;;;;;;5092315;28;20176;-59
2022/06/01 07:23:35;;;;;;;2.80;0.90;;;14.30;99.90;;;;;;5091314;28;20171;-59
2022/06/01 07:26:02;;;;;;;1.90;0.80;;;14.10;99.90;;;;;;5092240;28;20195;-59
2022/06/01 07:28:28;;;;;;;0.73;0.68;;;13.80;99.90;;;;;;5092139;28;20164;-59
2022/06/01 07:30:56;;;;;;;1.48;0.80;;;13.70;99.90;;;;;;5091909;28;20210;-59
2022/06/01 07:33:31;;;;;;;3.95;0.90;;;13.60;99.90;;;;;;5092116;28;20233;-59
2022/06/01 07:36:02;;;;;;;2.25;0.80;;;13.70;99.90;;;;;;5092001;28;20173;-59
2022/06/01 07:44:07;;;;;;;2.47;0.70;;;14.20;99.90;;;;;;5091916;28;20171;-58
2022/06/01 07:46:35;;;;;;;1.98;0.80;;;14.40;99.90;;;;;;5091667;28;20171;-58
2022/06/01 07:49:01;;;;;;;2.90;0.70;;;14.30;99.90;;;;;;5091591;28;20611;-59
2022/06/01 07:51:27;;;;;;;1.70;0.60;;;14.40;99.90;;;;;;5091615;28;20659;-59
2022/06/01 07:53:53;;;;;;;2.63;0.80;;;14.70;99.90;;;;;;5091570;28;20168;-59
2022/06/01 07:56:18;;;;;;;2.60;0.50;;;14.60;99.90;;;;;;5091552;28;20175;-59
2022/06/01 07:58:44;;;;;;;5.38;0.60;;;14.60;99.90;;;;;;5091393;28;20357;-58
2022/06/01 08:01:10;;;;;;;2.95;0.60;;;14.80;99.90;;;;;;5091246;28;20168;-59
2022/06/01 08:03:36;;;;;;;9.23;0.90;;;14.90;99.90;;;;;;5091256;28;20159;-59
2022/06/01 08:06:03;;;;;;;2.22;0.68;;;14.70;99.90;;;;;;5091074;28;20183;-58
2022/06/01 08:08:28;;;;;;;2.58;0.80;;;14.80;99.90;;;;;;5091183;28;20270;-59
2022/06/01 08:10:54;;;;;;;1.65;0.77;;;14.80;99.90;;;;;;5090996;28;20291;-59
2022/06/01 08:13:20;;;;;;;1.60;0.85;;;;;;;;;;5091365;28;20171;-59
2022/06/01 08:15:48;;;;;;;1.52;0.75;;;14.50;99.90;;;;;;5091223;28;20175;-59
2022/06/01 08:18:17;;;;;;;1.33;0.90;;;14.20;99.90;;;;;;5091226;28;20171;-59
2022/06/01 08:20:43;;;;;;;0.85;0.63;;;14.50;99.90;;;;;;5089573;28;20568;-59
2022/06/01 08:23:10;;;;;;;1.17;0.60;;;14.70;99.90;;;;;;5091056;28;20544;-59
2022/06/01 08:25:38;;;;;;;1.65;0.82;;;14.80;99.90;;;;;;5090972;28;20192;-59
2022/06/01 08:28:05;;;;;;;3.08;0.75;;;15.00;99.90;;;;;;5091132;28;20167;-58
2022/06/01 08:30:33;;;;;;;1.95;0.90;;;15.30;99.90;;;;;;5090956;28;20203;-59
2022/06/01 08:33:00;;;;;;;1.90;0.75;;;15.00;99.90;;;;;;5090889;28;20636;-59
2022/06/01 08:35:39;;;;;;;1.73;0.70;;;15.10;99.90;;;;;;5090510;28;20267;-58
2022/06/01 08:38:06;;;;;;;1.38;0.50;;;15.50;99.90;;;;;;5090868;28;20203;-59
2022/06/01 08:40:44;;;;;;;2.00;0.80;;;16.10;99.90;;;;;;5090778;28;20176;-58
2022/06/01 08:43:13;;;;;;;3.20;1.08;;;16.40;99.90;;;;;;5090625;28;20171;-58
2022/06/01 08:45:51;;;;;;;1.30;0.77;;;16.10;99.90;;;;;;5091109;28;20164;-58
2022/06/01 08:48:24;;;;;;;2.28;0.85;;;17.30;99.90;;;;;;5090758;28;20232;-59
2022/06/01 08:50:49;;;;;;;3.50;0.77;;;17.40;99.90;;;;;;5090766;28;20203;-59
2022/06/01 08:53:16;;;;;;;2.10;0.80;;;16.70;99.90;;;;;;5090689;28;20686;-59
2022/06/01 08:55:50;;;;;;;4.72;0.80;;;16.70;99.90;;;;;;5090543;28;20241;-58
2022/06/01 08:58:26;;;;;;;1.17;0.50;;;16.40;99.90;;;;;;5090650;28;20543;-59
2022/06/01 09:01:05;;;;;;;1.00;0.70;;;16.20;99.90;;;;;;5090580;28;20194;-59
2022/06/01 09:04:05;;;;;;;3.30;0.80;;;15.70;99.90;;;;;;5090404;28;20175;-59
2022/06/01 09:06:48;;;;;;;2.88;0.60;;;16.20;99.90;;;;;;5090477;28;20191;-59
2022/06/01 09:09:22;;;;;;;1.08;0.70;;;18.10;99.90;;;;;;5089076;28;20183;-59
2022/06/01 09:11:48;;;;;;;4.57;0.80;;;18.00;99.90;;;;;;5090608;28;20172;-59
2022/06/01 09:14:14;;;;;;;3.13;0.60;;;18.50;99.90;;;;;;5090686;28;20640;-59
2022/06/01 09:16:51;;;;;;;0.85;0.65;;;19.00;99.90;;;;;;5090639;28;20671;-59
2022/06/01 09:22:37;;;;;;;1.35;0.85;;;19.20;99.90;;;;;;5090422;28;20701;-59
2022/06/01 09:25:06;;;;;;;3.83;0.85;;;18.60;99.90;;;;;;5090547;28;20191;-59
2022/06/01 09:27:48;;;;;;;4.32;1.10;;;19.50;99.90;;;;;;5090360;28;20186;-59
2022/06/01 09:30:31;;;;;;;2.08;0.80;;;17.40;99.90;;;;;;5090678;28;20215;-59
2022/06/01 09:33:22;;;;;;;3.13;0.90;;;17.60;99.90;;;;;;5090526;28;20640;-59
2022/06/01 09:36:08;;;;;;;4.40;1.10;;;16.80;99.90;;;;;;5090334;28;20640;-59
2022/06/01 09:38:48;;;;;;;1.55;0.80;;;17.00;99.90;;;;;;5090436;28;20202;-59
2022/06/01 09:41:36;;;;;;;2.15;1.05;;;17.10;99.90;;;;;;5090484;28;20282;-59
2022/06/01 09:44:17;;;;;;;1.65;0.82;;;17.00;99.90;;;;;;5090358;28;20237;-59
2022/06/01 09:47:00;;;;;;;1.95;0.82;;;16.80;99.90;;;;;;5091175;28;20261;-57
2022/06/01 09:49:36;;;;;;;4.47;1.25;;;16.80;99.90;;;;;;5094070;28;20342;-58
2022/06/01 09:52:19;;;;;;;1.23;0.90;;;16.80;99.90;;;;;;5093994;28;20266;-59
2022/06/01 09:54:54;;;;;;;4.97;1.08;;;16.70;99.90;;;;;;5093783;28;20624;-59
2022/06/01 09:57:31;;;;;;;4.40;1.15;;;16.70;99.90;;;;;;5093978;28;20179;-59
2022/06/01 10:08:25;;;;;;;3.65;1.38;;;16.30;99.90;;;;;;5094406;28;20253;-59
2022/06/01 10:11:01;;;;;;;6.60;1.60;;;16.50;99.90;;;;;;5093631;28;20238;-59
2022/06/01 10:13:28;;;;;;;3.63;1.35;;;16.90;99.90;;;;;;5093653;28;20222;-59
2022/06/01 10:15:57;;;;;;;2.33;1.00;;;17.30;99.90;;;;;;5093608;28;20199;-59
2022/06/01 10:18:29;;;;;;;6.32;1.45;;;17.30;99.90;;;;;;5093867;28;20179;-59
2022/06/01 10:21:09;;;;;;;4.70;1.30;;;17.60;99.90;;;;;;5093291;28;20276;-59
2022/06/01 10:23:39;;;;;;;5.03;1.10;;;17.00;99.90;;;;;;5093395;28;20175;-59
2022/06/01 10:26:13;;;;;;;4.15;1.13;;;17.70;99.90;;;;;;5093316;28;20616;-59
2022/06/01 10:28:42;;;;;;;4.95;1.35;;;18.30;99.90;;;;;;5093475;28;20176;-59
2022/06/01 10:31:25;;;;;;;1.85;1.10;;;18.10;99.90;;;;;;5093222;28;20199;-59
2022/06/01 10:34:23;;;;;;;2.42;1.30;;;18.50;99.90;;;;;;5093292;28;20697;-59
2022/06/01 10:36:54;;;;;;;3.95;1.38;;;18.00;99.90;;;;;;5093191;28;20207;-59
2022/06/01 10:39:35;;;;;;;3.10;1.17;;;18.20;99.90;;;;;;5093159;28;20529;-59
2022/06/01 10:42:23;;;;;;;2.75;1.10;;;18.30;99.90;;;;;;5093110;28;20174;-59
2022/06/01 10:45:00;;;;;;;2.15;1.20;;;18.10;99.90;;;;;;5093272;28;20160;-59
2022/06/01 10:47:34;;;;;;;2.05;1.10;;;18.10;99.90;;;;;;5093002;28;20176;-60
2022/06/01 10:50:13;;;;;;;1.70;0.98;;;18.40;99.90;;;;;;5092881;28;20207;-59
2022/06/01 10:52:38;;;;;;;3.88;1.10;;;20.60;99.90;;;;;;5092674;28;20647;-59
2022/06/01 10:55:24;;;;;;;2.72;0.90;;;19.80;99.90;;;;;;5092651;28;20176;-59
2022/06/01 10:57:51;;;;;;;1.95;0.88;;;20.00;99.90;;;;;;5092030;28;20176;-59
2022/06/01 11:00:25;;;;;;;3.28;1.23;;;19.90;99.90;;;;;;5092206;28;20172;-59
2022/06/01 11:03:14;;;;;;;2.10;1.08;;;20.30;99.90;;;;;;5092534;28;20255;-59
2022/06/01 11:05:46;;;;;;;2.45;0.93;;;20.10;99.90;;;;;;5092408;28;20168;-59
2022/06/01 11:08:42;;;;;;;4.93;1.10;;;19.30;99.90;;;;;;5092518;28;20183;-59
2022/06/01 11:11:36;;;;;;;2.53;1.10;;;19.20;99.90;;;;;;5092391;28;20683;-60
2022/06/01 11:14:18;;;;;;;3.90;0.93;;;19.30;99.90;;;;;;5092274;28;20240;-59
2022/06/01 11:16:52;;;;;;;3.00;1.20;;;19.30;99.90;;;;;;5092364;28;20163;-59
2022/06/01 11:19:23;;;;;;;4.75;1.00;;;19.10;99.90;;;;;;5092116;28;20219;-60
2022/06/01 11:22:13;;;;;;;2.35;1.00;;;19.00;99.90;;;;;;5092165;28;20529;-59
2022/06/01 11:24:56;;;;;;;2.22;1.00;;;19.40;99.90;;;;;;5092063;28;20180;-59
2022/06/01 11:27:33;;;;;;;2.42;1.02;;;19.50;99.90;;;;;;5091802;28;20211;-59
2022/06/01 11:30:07;;;;;;;2.30;1.20;;;19.70;99.90;;;;;;5090587;28;20253;-59
2022/06/01 11:32:44;;;;;;;1.75;0.85;;;20.20;99.90;;;;;;5091981;28;20167;-59
2022/06/01 11:35:30;;;;;;;2.28;0.90;;;19.70;99.90;;;;;;5092053;28;20207;-59
2022/06/01 11:38:18;;;;;;;3.83;0.88;;;19.90;99.90;;;;;;5091907;28;20171;-59
2022/06/01 11:40:57;;;;;;;2.53;0.90;;;20.30;99.90;;;;;;5091872;28;20233;-59
2022/06/01 11:43:47;;;;;;;8.15;1.10;;;20.10;99.90;;;;;;5091847;28;20171;-59
2022/06/01 11:46:23;;;;;;;3.70;1.30;;;20.10;99.90;;;;;;5091928;28;20225;-59
2022/06/01 11:48:56;;;;;;;3.40;1.10;;;19.80;99.90;;;;;;5091760;28;20203;-59
2022/06/01 11:51:35;;;;;;;3.13;0.93;;;19.50;99.90;;;;;;5091608;28;20223;-59
2022/06/01 11:54:17;;;;;;;3.60;1.15;;;19.40;99.90;;;;;;5091740;28;20171;-59
2022/06/01 11:56:54;;;;;;;4.82;1.48;;;19.00;99.90;;;;;;5091689;28;20301;-59
2022/06/01 11:59:31;;;;;;;3.08;1.40;;;19.00;99.90;;;;;;5091564;28;20536;-58
2022/06/01 12:01:58;;;;;;;1.70;0.90;;;18.90;99.90;;;;;;5091647;28;20663;-59
2022/06/01 12:04:30;;;;;;;4.55;0.85;;;18.60;99.90;;;;;;5091446;28;20549;-59
2022/06/01 12:07:06;;;;;;;10.55;1.00;;;18.50;99.90;;;;;;5091468;28;20167;-59
2022/06/01 12:09:45;;;;;;;2.60;0.93;;;18.10;99.90;;;;;;5091050;28;20248;-59
2022/06/01 12:12:25;;;;;;;3.72;1.00;;;18.20;99.90;;;;;;5091462;28;20236;-59
2022/06/01 12:14:58;;;;;;;3.30;1.10;;;18.20;99.90;;;;;;5091373;28;20620;-59
2022/06/01 12:17:27;;;;;;;6.07;1.13;;;18.50;99.90;;;;;;5091342;28;20191;-59
2022/06/01 12:20:13;;;;;;;1.65;1.00;;;18.40;99.90;;;;;;5091009;28;20227;-59
2022/06/01 12:29:08;;;;;;;3.78;0.88;;;18.70;99.90;;;;;;5091098;28;20232;-59
2022/06/01 12:31:59;;;;;;;1.85;0.60;;;19.00;99.90;;;;;;5086455;28;20253;-59
2022/06/01 12:34:33;;;;;;;2.25;0.80;;;19.40;99.90;;;;;;5090929;28;20171;-59
2022/06/01 12:37:11;;;;;;;4.53;0.88;;;19.40;99.90;;;;;;5090998;28;20229;-59
2022/06/01 12:39:40;;;;;;;3.60;0.90;;;19.10;99.90;;;;;;5091077;28;20271;-59
2022/06/01 12:42:19;;;;;;;2.55;0.85;;;18.80;99.90;;;;;;5091001;28;20179;-59
2022/06/01 12:44:49;;;;;;;2.88;0.95;;;18.70;99.90;;;;;;5090960;28;20195;-59
2022/06/01 12:47:29;;;;;;;4.70;1.10;;;18.70;99.90;;;;;;5090935;28;20176;-59
2022/06/01 12:49:55;;;;;;;4.75;1.35;;;18.90;99.90;;;;;;5090686;28;20209;-59
2022/06/01 12:52:26;;;;;;;4.13;1.52;;;19.00;99.90;;;;;;5090860;28;20191;-59
2022/06/01 12:54:58;;;;;;;4.20;1.10;;;18.90;99.90;;;;;;5090854;28;20164;-59
2022/06/01 12:58:01;;;;;;;3.33;1.10;;;18.70;99.90;;;;;;5090800;28;20175;-59
2022/06/01 13:00:30;;;;;;;2.97;0.90;;;18.50;99.90;;;;;;5090364;28;20190;-59
2022/06/01 13:02:56;;;;;;;2.65;0.80;;;18.30;99.90;;;;;;5090871;28;20205;-59
2022/06/01 13:05:42;;;;;;;5.28;1.42;;;17.80;99.90;;;;;;5090791;28;20640;-59
2022/06/01 13:08:15;;;;;;;2.45;0.95;;;17.80;99.90;;;;;;5090330;28;20236;-59
2022/06/01 13:10:40;;;;;;;2.03;0.95;;;17.80;99.90;;;;;;5090502;28;20207;-59
2022/06/01 13:13:13;;;;;;;0.98;0.80;;;18.00;99.90;;;;;;5090614;28;20179;-59
2022/06/01 13:15:41;;;;;;;2.08;1.00;;;18.20;99.90;;;;;;5090690;28;20258;-59
2022/06/01 13:18:13;;;;;;;3.22;1.00;;;18.30;99.90;;;;;;5090466;28;20168;-58
2022/06/01 13:20:52;;;;;;;3.47;1.00;;;18.40;99.90;;;;;;5090220;28;20280;-59
2022/06/01 13:23:29;;;;;;;5.35;1.23;;;18.70;99.90;;;;;;5093855;28;20182;-59
2022/06/01 13:25:58;;;;;;;2.90;1.13;;;18.60;99.90;;;;;;5094439;28;20171;-59
2022/06/01 13:28:25;;;;;;;3.22;0.90;;;18.60;99.90;;;;;;5094608;28;20171;-59
2022/06/01 13:30:52;;;;;;;2.83;1.08;;;18.50;99.90;;;;;;5094393;28;20694;-59
2022/06/01 13:33:25;;;;;;;5.47;1.27;;;18.90;99.90;;;;;;5094386;28;20172;-59
2022/06/01 13:36:00;;;;;;;1.38;0.90;;;18.70;99.90;;;;;;5094265;28;20180;-59
2022/06/01 13:38:48;;;;;;;2.20;1.08;;;19.10;99.90;;;;;;5094238;28;20698;-58
2022/06/01 13:41:20;;;;;;;5.10;1.05;;;19.40;99.90;;;;;;5094066;28;20216;-58